createdAt,value
2023-05-16T00:04:05.264Z,100.00
2023-05-16T00:09:10.949Z,100.00
2023-05-16T00:14:16.376Z,100.00
2023-05-16T00:19:21.838Z,100.00
2023-05-16T00:24:27.456Z,100.00
2023-05-16T00:29:32.956Z,100.00
2023-05-16T00:34:38.562Z,100.00
2023-05-16T00:39:44.247Z,100.00
2023-05-16T00:44:49.757Z,100.00
2023-05-16T00:49:55.399Z,100.00
2023-05-16T00:55:01.474Z,100.00
2023-05-16T01:00:12.581Z,100.00
2023-05-16T01:05:18.415Z,100.00
2023-05-16T01:10:25.590Z,100.00
2023-05-16T01:15:37.215Z,100.00
2023-05-16T01:20:49.508Z,100.00
2023-05-16T01:26:14.295Z,100.00
2023-05-16T01:31:20.865Z,100.00
2023-05-16T01:36:31.398Z,100.00
2023-05-16T01:41:53.651Z,100.00
2023-05-16T01:47:02.825Z,100.00
2023-05-16T01:52:13.490Z,100.00
2023-05-16T01:57:20.260Z,100.00
2023-05-16T02:02:25.929Z,100.00
2023-05-16T02:07:32.225Z,100.00
2023-05-16T02:12:38.162Z,100.00
2023-05-16T02:17:44.292Z,100.00
2023-05-16T02:22:50.175Z,100.00
2023-05-16T02:27:56.523Z,100.00
2023-05-16T02:33:02.799Z,100.00
2023-05-16T02:38:09.768Z,100.00
2023-05-16T02:43:15.985Z,100.00
2023-05-16T02:48:21.489Z,100.00
2023-05-16T02:53:27.107Z,100.00
2023-05-16T02:58:33.075Z,100.00
2023-05-16T03:03:39.693Z,100.00
2023-05-16T03:08:45.284Z,100.00
2023-05-16T03:13:50.821Z,100.00
2023-05-16T03:18:57.143Z,100.00
2023-05-16T03:24:04.515Z,100.00
2023-05-16T03:29:11.165Z,100.00
2023-05-16T03:34:16.667Z,100.00
2023-05-16T03:39:22.811Z,100.00
2023-05-16T03:44:28.319Z,100.00
2023-05-16T03:49:33.899Z,100.00
2023-05-16T03:54:39.467Z,100.00
2023-05-16T03:59:45.128Z,100.00
2023-05-16T04:04:50.752Z,100.00
2023-05-16T04:09:58.669Z,100.00
2023-05-16T04:15:06.814Z,100.00
2023-05-16T04:20:13.474Z,100.00
2023-05-16T04:25:19.638Z,96.83
2023-05-16T04:30:25.448Z,84.46
2023-05-16T04:35:31.215Z,76.59
2023-05-16T04:40:36.850Z,69.68
2023-05-16T04:45:43.033Z,63.97
2023-05-16T04:50:48.590Z,58.42
2023-05-16T04:55:54.249Z,55.00
2023-05-16T05:01:01.804Z,51.04
2023-05-16T05:06:08.510Z,48.24
2023-05-16T05:11:14.174Z,45.95
2023-05-16T05:16:19.962Z,44.91
2023-05-16T05:21:25.505Z,43.42
2023-05-16T05:26:31.244Z,44.93
2023-05-16T05:31:37.439Z,45.71
2023-05-16T05:36:47.215Z,45.64
2023-05-16T05:41:55.278Z,45.17
2023-05-16T05:47:00.821Z,45.62
2023-05-16T05:52:06.840Z,46.12
2023-05-16T05:57:12.338Z,46.68
2023-05-16T06:02:17.798Z,48.78
2023-05-16T06:07:23.731Z,51.70
2023-05-16T06:12:29.168Z,54.68
2023-05-16T06:17:34.754Z,57.29
2023-05-16T06:22:40.758Z,59.33
2023-05-16T06:27:46.249Z,61.45
2023-05-16T06:32:51.911Z,62.99
2023-05-16T06:37:57.530Z,64.79
2023-05-16T06:43:03.126Z,66.84
2023-05-16T06:48:09.711Z,68.68
2023-05-16T06:53:15.756Z,69.74
2023-05-16T06:58:21.761Z,69.07
2023-05-16T07:03:27.417Z,69.03
2023-05-16T07:08:36.011Z,68.79
2023-05-16T07:13:41.376Z,69.69
2023-05-16T07:18:47.028Z,70.04
2023-05-16T07:23:52.672Z,70.64
2023-05-16T07:28:59.071Z,71.33
2023-05-16T07:34:04.813Z,71.67
2023-05-16T07:39:10.708Z,71.32
2023-05-16T07:44:16.443Z,66.33
2023-05-16T07:49:22.095Z,63.59
2023-05-16T07:54:27.485Z,61.03
2023-05-16T07:59:33.518Z,59.38
2023-05-16T08:04:39.506Z,59.77
2023-05-16T08:09:44.903Z,60.51
2023-05-16T08:14:50.803Z,62.34
2023-05-16T08:19:56.732Z,63.33
2023-05-16T08:25:02.412Z,63.69
2023-05-16T08:30:11.416Z,62.29
2023-05-16T08:35:17.314Z,62.37
2023-05-16T08:40:25.552Z,64.67
2023-05-16T08:45:31.997Z,63.97
2023-05-16T08:50:37.690Z,61.81
2023-05-16T08:55:44.357Z,58.86
2023-05-16T09:05:40.791Z,54.02
2023-05-16T09:10:46.251Z,53.81
2023-05-16T09:16:12.920Z,55.18
2023-05-16T09:21:19.528Z,56.36
2023-05-16T09:26:26.310Z,56.37
2023-05-16T09:31:38.100Z,54.52
2023-05-16T09:36:44.990Z,55.63
2023-05-16T09:41:53.522Z,55.70
2023-05-16T09:47:00.576Z,54.71
2023-05-16T09:52:07.800Z,53.05
2023-05-16T09:57:13.456Z,50.62
2023-05-16T10:02:20.640Z,49.40
2023-05-16T10:07:27.129Z,50.44
2023-05-16T10:12:33.097Z,51.75
2023-05-16T10:17:43.278Z,52.59
2023-05-16T10:22:50.411Z,53.56
2023-05-16T10:27:56.364Z,54.53
2023-05-16T10:33:04.229Z,55.76
2023-05-16T10:38:13.353Z,56.55
2023-05-16T10:43:27.030Z,57.75
2023-05-16T10:48:34.517Z,58.91
2023-05-16T10:53:39.911Z,58.63
2023-05-16T10:58:47.600Z,59.40
2023-05-16T11:04:10.185Z,59.14
2023-05-16T11:09:28.383Z,58.62
2023-05-16T11:14:47.721Z,59.13
2023-05-16T11:19:57.550Z,60.37
2023-05-16T11:25:05.804Z,60.11
2023-05-16T11:30:17.104Z,60.57
2023-05-16T11:35:22.692Z,60.62
2023-05-16T11:40:28.283Z,59.07
2023-05-16T11:45:34.370Z,56.82
2023-05-16T11:50:39.848Z,56.42
2023-05-16T11:55:50.102Z,55.76
2023-05-16T12:00:58.609Z,56.43
2023-05-16T12:06:04.913Z,56.22
2023-05-16T12:11:12.203Z,57.45
2023-05-16T12:16:18.602Z,55.09
2023-05-16T12:21:24.389Z,54.18
2023-05-16T12:26:31.282Z,51.22
2023-05-16T12:31:40.587Z,51.35
2023-05-16T12:36:50.545Z,52.03
2023-05-16T12:41:56.338Z,52.18
2023-05-16T12:47:02.378Z,53.27
2023-05-16T12:52:19.000Z,53.85
2023-05-16T12:57:24.639Z,54.79
2023-05-16T13:02:30.241Z,55.14
2023-05-16T13:07:36.348Z,55.22
2023-05-16T13:12:42.665Z,55.13
2023-05-16T13:17:49.009Z,54.46
2023-05-16T13:22:55.835Z,54.52
2023-05-16T13:28:01.674Z,55.02
2023-05-16T13:33:08.041Z,54.64
2023-05-16T13:38:15.400Z,53.79
2023-05-16T13:43:20.963Z,53.23
2023-05-16T13:48:26.613Z,52.92
2023-05-16T13:53:32.292Z,53.60
2023-05-16T13:58:48.938Z,53.57
2023-05-16T14:04:03.763Z,52.45
2023-05-16T14:09:09.711Z,52.37
2023-05-16T14:14:15.363Z,51.67
2023-05-16T14:19:21.243Z,51.90
2023-05-16T14:24:26.973Z,51.06
2023-05-16T14:29:32.742Z,50.93
2023-05-16T14:34:38.636Z,51.01
2023-05-16T14:39:46.581Z,51.58
2023-05-16T14:44:52.089Z,51.07
2023-05-16T14:49:57.876Z,51.65
2023-05-16T14:55:03.482Z,50.70
2023-05-16T15:00:11.844Z,51.18
2023-05-16T15:05:55.829Z,51.87
2023-05-16T15:11:01.922Z,51.99
2023-05-16T15:16:08.296Z,51.82
2023-05-16T15:21:13.701Z,51.92
2023-05-16T15:26:19.671Z,52.48
2023-05-16T15:31:25.539Z,52.95
2023-05-16T15:36:30.987Z,52.41
2023-05-16T15:42:00.688Z,52.87
2023-05-16T15:47:01.877Z,52.54
2023-05-16T15:52:08.449Z,52.60
2023-05-16T15:57:13.793Z,53.00
2023-05-16T16:02:19.210Z,53.17
2023-05-16T16:07:26.013Z,53.39
2023-05-16T16:12:31.911Z,53.10
2023-05-16T16:17:37.677Z,52.31
2023-05-16T16:22:43.611Z,52.73
2023-05-16T16:27:49.107Z,53.45
2023-05-16T16:32:54.543Z,54.16
2023-05-16T16:38:06.874Z,54.11
2023-05-16T16:43:13.914Z,55.24
2023-05-16T16:48:19.481Z,55.37
2023-05-16T16:53:24.976Z,55.25
2023-05-16T16:58:30.696Z,54.56
2023-05-16T17:03:36.378Z,55.51
2023-05-16T17:08:41.941Z,55.61
2023-05-16T17:13:47.384Z,54.94
2023-05-16T17:18:55.073Z,55.38
2023-05-16T17:24:00.721Z,56.24
2023-05-16T17:29:06.368Z,56.60
2023-05-16T17:34:11.779Z,57.15
2023-05-16T17:39:17.450Z,57.54
2023-05-16T17:44:23.070Z,57.88
2023-05-16T17:49:28.628Z,58.50
2023-05-16T17:54:34.177Z,59.91
2023-05-16T17:59:40.617Z,60.87
2023-05-16T18:04:51.623Z,61.83
2023-05-16T18:10:17.234Z,64.04
2023-05-16T18:15:23.642Z,66.61
2023-05-16T18:20:29.881Z,69.12
2023-05-16T18:25:35.423Z,70.36
2023-05-16T18:30:41.070Z,72.23
2023-05-16T18:35:46.629Z,73.47
2023-05-16T18:40:52.315Z,74.39
2023-05-16T18:45:57.879Z,75.77
2023-05-16T18:51:03.699Z,76.87
2023-05-16T18:56:09.567Z,78.02
2023-05-16T19:01:15.554Z,78.79
2023-05-16T19:06:21.238Z,80.14
2023-05-16T19:11:27.060Z,80.88
2023-05-16T19:16:32.963Z,81.11
2023-05-16T19:21:39.207Z,80.86
2023-05-16T19:26:44.799Z,80.79
2023-05-16T19:31:50.371Z,82.07
2023-05-16T19:36:56.224Z,83.52
2023-05-16T19:42:07.034Z,84.64
2023-05-16T19:47:17.490Z,85.46
2023-05-16T19:52:24.327Z,86.05
2023-05-16T19:57:29.946Z,86.68
2023-05-16T20:02:35.671Z,87.52
2023-05-16T20:07:41.585Z,87.72
2023-05-16T20:12:47.297Z,88.44
2023-05-16T20:17:52.846Z,89.19
2023-05-16T20:22:58.260Z,89.74
2023-05-16T20:28:04.103Z,90.32
2023-05-16T20:33:09.700Z,90.95
2023-05-16T20:38:15.221Z,91.69
2023-05-16T20:43:20.701Z,91.95
2023-05-16T20:48:26.475Z,92.42
2023-05-16T20:53:32.104Z,93.41
2023-05-16T20:58:41.153Z,94.40
2023-05-16T21:03:46.735Z,95.00
2023-05-16T21:08:52.142Z,95.71
2023-05-16T21:13:57.677Z,96.24
2023-05-16T21:19:04.437Z,96.79
2023-05-16T21:24:10.244Z,97.55
2023-05-16T21:29:15.607Z,97.78
2023-05-16T21:34:21.112Z,98.05
2023-05-16T21:39:26.479Z,98.42
2023-05-16T21:44:32.030Z,99.31
2023-05-16T21:49:37.406Z,99.63
2023-05-16T21:54:42.986Z,100.00
2023-05-16T21:59:50.568Z,99.99
2023-05-16T22:04:56.095Z,100.00
2023-05-16T22:10:02.504Z,100.00
2023-05-16T22:15:09.524Z,100.00
2023-05-16T22:20:15.026Z,100.00
2023-05-16T22:25:20.832Z,100.00
2023-05-16T22:30:26.364Z,100.00
2023-05-16T22:35:31.915Z,100.00
2023-05-16T22:40:37.862Z,100.00
2023-05-16T22:45:43.628Z,100.00
2023-05-16T22:50:49.215Z,100.00
2023-05-16T22:55:54.945Z,100.00
2023-05-16T23:01:01.509Z,100.00
2023-05-16T23:06:07.510Z,100.00
2023-05-16T23:11:12.857Z,100.00
2023-05-16T23:16:18.305Z,100.00
2023-05-16T23:21:23.691Z,100.00
2023-05-16T23:26:29.165Z,100.00
2023-05-16T23:31:34.670Z,100.00
2023-05-16T23:36:40.434Z,100.00
2023-05-16T23:41:45.859Z,100.00
2023-05-16T23:46:51.473Z,100.00
2023-05-16T23:51:58.270Z,100.00
2023-05-16T23:57:04.155Z,100.00
